Time;durP1;ratioP1;P1;durP2;ratioP2;P2;SDS_P1;SDS_P2;PMS_P1;PMS_P2;Temp;Humidity;BMP_temperature;BMP_pressure;BME280_temperature;BME280_humidity;BME280_pressure;Samples;Min_cycle;Max_cycle;Signal;HPM_P1;HPM_P2
2022/05/03 00:04:31;;;;;;;9.67;9.37;;;12.50;99.90;;;;;;6139370;23;20245;-82
2022/05/03 00:07:11;;;;;;;9.37;9.07;;;12.50;99.90;;;;;;6143146;23;20209;-81
2022/05/03 00:09:48;;;;;;;9.60;9.30;;;12.60;99.90;;;;;;6150511;23;20226;-80
2022/05/03 00:12:26;;;;;;;9.63;9.33;;;12.50;99.90;;;;;;6142840;23;20200;-81
2022/05/03 00:15:04;;;;;;;9.50;9.20;;;12.60;99.90;;;;;;6140706;23;20189;-81
2022/05/03 00:17:33;;;;;;;9.50;9.20;;;12.60;99.90;;;;;;6140380;23;20208;-81
2022/05/03 00:20:04;;;;;;;9.53;9.23;;;12.50;99.90;;;;;;6139953;23;20211;-82
2022/05/03 00:22:32;;;;;;;9.60;9.30;;;12.50;99.90;;;;;;6139902;23;20252;-81
2022/05/03 00:25:02;;;;;;;9.10;8.90;;;12.50;99.90;;;;;;6138925;23;20206;-82
2022/05/03 00:27:32;;;;;;;9.40;9.10;;;12.50;99.90;;;;;;6139174;23;20201;-81
2022/05/03 00:30:11;;;;;;;8.90;8.70;;;12.50;99.90;;;;;;6139128;23;20193;-81
2022/05/03 00:32:40;;;;;;;9.30;9.00;;;12.50;99.90;;;;;;6139522;23;20200;-82
2022/05/03 00:35:10;;;;;;;9.07;8.87;;;12.50;99.90;;;;;;6139251;23;20208;-81
2022/05/03 00:37:38;;;;;;;9.30;9.00;;;12.50;99.90;;;;;;6141096;23;20287;-81
2022/05/03 00:40:07;;;;;;;9.40;9.10;;;12.50;99.90;;;;;;6141733;23;20256;-81
2022/05/03 00:42:47;;;;;;;9.47;9.17;;;12.40;99.90;;;;;;6142237;23;20201;-82
2022/05/03 00:45:32;;;;;;;9.00;8.80;;;12.40;99.90;;;;;;6142594;23;20200;-81
2022/05/03 00:48:11;;;;;;;9.30;9.00;;;12.40;99.90;;;;;;6152176;23;20260;-81
2022/05/03 00:53:36;;;;;;;9.40;9.10;;;12.30;99.90;;;;;;6141274;23;20200;-82
2022/05/03 00:56:44;;;;;;;9.43;9.13;;;12.30;99.90;;;;;;6140596;23;20220;-80
2022/05/03 00:59:29;;;;;;;9.37;9.07;;;12.30;99.90;;;;;;6137725;23;20283;-82
2022/05/03 01:02:06;;;;;;;9.33;9.03;;;12.20;99.90;;;;;;6140129;23;20225;-82
2022/05/03 01:04:42;;;;;;;9.60;9.30;;;12.20;99.90;;;;;;6140426;23;20189;-83
2022/05/03 01:07:31;;;;;;;9.60;9.30;;;12.10;99.90;;;;;;6141875;23;20192;-82
2022/05/03 01:10:11;;;;;;;9.30;9.00;;;12.10;99.90;;;;;;6141391;23;20205;-83
2022/05/03 01:12:58;;;;;;;9.30;9.00;;;12.10;99.90;;;;;;6139754;23;20193;-82
2022/05/03 01:18:31;;;;;;;9.00;8.80;;;12.00;99.90;;;;;;6154304;23;20245;-83
2022/05/03 01:21:08;;;;;;;9.40;9.10;;;11.90;99.90;;;;;;6144333;23;21000;-83
2022/05/03 01:24:14;;;;;;;9.10;8.90;;;11.90;99.90;;;;;;6143096;23;20197;-82
2022/05/03 01:27:19;;;;;;;9.17;8.97;;;11.80;99.90;;;;;;6141310;23;20193;-82
2022/05/03 01:29:56;;;;;;;9.50;9.20;;;11.80;99.90;;;;;;6088576;23;20205;-82
2022/05/03 01:32:25;;;;;;;9.57;9.27;;;11.70;99.90;;;;;;6141021;23;20240;-83
2022/05/03 01:34:57;;;;;;;9.50;9.20;;;11.70;99.90;;;;;;6139646;23;20216;-83
2022/05/03 01:37:55;;;;;;;9.53;9.23;;;11.70;99.90;;;;;;6139347;23;20213;-82
2022/05/03 01:40:48;;;;;;;9.50;9.20;;;11.60;99.90;;;;;;6115654;23;21050;-82
2022/05/03 01:43:36;;;;;;;9.30;9.00;;;11.60;99.90;;;;;;6139877;23;20204;-82
2022/05/03 01:46:15;;;;;;;9.60;9.30;;;11.60;99.90;;;;;;6139587;23;20201;-82
2022/05/03 01:52:23;;;;;;;9.27;8.97;;;11.50;99.90;;;;;;6139586;23;20643;-83
2022/05/03 01:55:10;;;;;;;9.20;8.97;;;11.50;99.90;;;;;;6139387;23;20209;-83
2022/05/03 01:57:57;;;;;;;9.50;9.20;;;11.40;99.90;;;;;;6138408;23;20280;-82
2022/05/03 02:00:25;;;;;;;9.57;9.27;;;11.30;99.90;;;;;;6108728;23;20205;-82
2022/05/03 02:03:05;;;;;;;9.80;9.50;;;11.30;99.90;;;;;;6109922;23;20204;-82
2022/05/03 02:05:54;;;;;;;9.93;9.63;;;11.20;99.90;;;;;;6115097;23;20226;-82
2022/05/03 02:08:27;;;;;;;9.87;9.57;;;11.10;99.90;;;;;;6116341;23;20207;-82
2022/05/03 02:11:35;;;;;;;10.07;9.77;;;11.10;99.90;;;;;;6113762;23;20193;-82
2022/05/03 02:17:02;;;;;;;9.80;9.50;;;10.80;99.90;;;;;;6110251;23;20705;-82
2022/05/03 02:19:54;;;;;;;10.20;9.90;;;10.70;99.90;;;;;;6111057;23;20201;-82
2022/05/03 02:22:55;;;;;;;10.10;9.80;;;10.60;99.90;;;;;;6121752;23;20204;-82
2022/05/03 02:25:38;;;;;;;9.80;9.50;;;10.60;99.90;;;;;;6117336;23;20201;-83
2022/05/03 02:28:17;;;;;;;9.80;9.50;;;10.50;99.90;;;;;;6113490;23;20193;-81
2022/05/03 02:30:47;;;;;;;9.80;9.50;;;10.40;99.90;;;;;;6111673;23;20252;-82
2022/05/03 02:33:24;;;;;;;9.73;9.43;;;10.40;99.90;;;;;;6110530;23;20262;-82
2022/05/03 02:36:00;;;;;;;10.17;9.87;;;10.40;99.90;;;;;;6109477;23;20258;-82
2022/05/03 02:38:39;;;;;;;10.20;9.90;;;10.30;99.90;;;;;;6109799;23;20280;-82
2022/05/03 02:41:12;;;;;;;10.10;9.80;;;10.30;99.90;;;;;;6109870;23;20201;-82
2022/05/03 02:43:41;;;;;;;10.00;9.70;;;10.30;99.90;;;;;;6109567;23;20272;-83
2022/05/03 02:46:44;;;;;;;10.20;9.90;;;10.30;99.90;;;;;;6108791;23;20234;-83
2022/05/03 02:49:22;;;;;;;10.00;9.70;;;10.30;99.90;;;;;;6108071;23;20193;-83
2022/05/03 02:52:11;;;;;;;10.20;9.90;;;10.30;99.90;;;;;;6108907;23;20194;-82
2022/05/03 02:54:50;;;;;;;10.17;9.87;;;10.20;99.90;;;;;;6107757;23;20201;-83
2022/05/03 02:57:34;;;;;;;10.03;9.73;;;10.20;99.90;;;;;;6112744;23;20194;-83
2022/05/03 03:03:36;;;;;;;9.80;9.50;;;10.20;99.90;;;;;;6141122;23;20189;-83
2022/05/03 03:06:05;;;;;;;9.83;9.53;;;10.10;99.90;;;;;;6129185;23;20196;-83
2022/05/03 03:08:44;;;;;;;9.73;9.43;;;10.10;99.90;;;;;;6139775;23;20197;-83
2022/05/03 03:11:25;;;;;;;9.80;9.50;;;10.10;99.90;;;;;;6138629;23;20189;-82
2022/05/03 03:14:09;;;;;;;9.40;9.10;;;10.00;99.90;;;;;;6136766;23;20252;-82
2022/05/03 03:16:46;;;;;;;9.20;8.90;;;9.90;99.90;;;;;;6136802;23;20209;-82
2022/05/03 03:19:42;;;;;;;9.50;9.20;;;9.90;99.90;;;;;;6137529;23;20204;-82
2022/05/03 03:22:21;;;;;;;10.03;9.73;;;9.90;99.90;;;;;;6137561;23;20270;-83
2022/05/03 03:25:00;;;;;;;10.07;9.77;;;9.90;99.90;;;;;;6138950;23;20256;-82
2022/05/03 03:27:31;;;;;;;10.00;9.70;;;9.90;99.90;;;;;;6139452;23;20244;-82
2022/05/03 03:30:07;;;;;;;10.90;10.60;;;9.90;99.90;;;;;;6138432;23;20205;-82
2022/05/03 03:32:39;;;;;;;10.70;10.40;;;9.90;99.90;;;;;;6138889;23;20204;-82
2022/05/03 03:35:08;;;;;;;10.77;10.47;;;9.90;99.90;;;;;;6138127;23;20193;-82
2022/05/03 03:37:36;;;;;;;10.90;10.60;;;9.90;99.90;;;;;;6138467;23;20212;-82
2022/05/03 03:40:16;;;;;;;10.60;10.30;;;9.90;99.90;;;;;;6138965;23;20206;-83
2022/05/03 03:42:47;;;;;;;10.77;10.47;;;9.90;99.90;;;;;;6139003;23;20221;-82
2022/05/03 03:45:25;;;;;;;11.10;10.80;;;9.90;99.90;;;;;;6138235;23;20224;-83
2022/05/03 03:47:53;;;;;;;10.97;10.67;;;9.90;99.90;;;;;;6138559;23;20256;-83
2022/05/03 03:50:22;;;;;;;10.93;10.63;;;9.90;99.90;;;;;;6138967;23;20212;-83
2022/05/03 03:52:50;;;;;;;10.70;10.40;;;9.90;99.90;;;;;;6138280;23;20216;-82
2022/05/03 03:55:29;;;;;;;10.67;10.37;;;9.80;99.90;;;;;;6138826;23;20292;-82
2022/05/03 03:57:59;;;;;;;10.80;10.50;;;9.80;99.90;;;;;;6139515;23;20204;-83
2022/05/03 04:00:27;;;;;;;10.70;10.40;;;9.80;99.90;;;;;;6139600;23;20193;-83
2022/05/03 04:02:57;;;;;;;10.50;10.20;;;9.80;99.90;;;;;;6140310;23;20252;-83
2022/05/03 04:05:26;;;;;;;10.67;10.37;;;9.80;99.90;;;;;;6141709;23;20292;-83
2022/05/03 04:07:56;;;;;;;10.50;10.20;;;9.80;99.90;;;;;;6154570;23;20205;-83
2022/05/03 04:10:27;;;;;;;10.50;10.20;;;9.80;99.90;;;;;;6160752;23;20241;-83
2022/05/03 04:12:55;;;;;;;10.43;10.13;;;9.80;99.90;;;;;;6160676;23;20181;-83
2022/05/03 04:15:24;;;;;;;10.53;10.23;;;9.80;99.90;;;;;;6160809;23;20177;-83
2022/05/03 04:17:53;;;;;;;10.67;10.37;;;9.80;99.90;;;;;;6160570;23;20205;-83
2022/05/03 04:20:24;;;;;;;10.40;10.10;;;9.80;99.90;;;;;;6160575;23;20189;-82
2022/05/03 04:22:53;;;;;;;10.57;10.27;;;9.70;99.90;;;;;;6160830;23;20165;-83
2022/05/03 04:25:22;;;;;;;10.67;10.37;;;9.70;99.90;;;;;;6160695;23;20199;-84
2022/05/03 04:27:58;;;;;;;10.97;10.67;;;9.70;99.90;;;;;;6160659;23;20179;-83
2022/05/03 04:30:33;;;;;;;10.67;10.37;;;9.70;99.90;;;;;;6160559;23;20208;-83
2022/05/03 04:33:01;;;;;;;10.80;10.50;;;9.70;99.90;;;;;;6160608;23;20183;-83
2022/05/03 04:35:28;;;;;;;10.50;10.20;;;9.70;99.90;;;;;;6160311;23;20189;-82
2022/05/03 04:37:58;;;;;;;10.60;10.30;;;9.70;99.90;;;;;;6160759;23;20245;-83
2022/05/03 04:40:27;;;;;;;10.90;10.60;;;9.80;99.90;;;;;;6160846;23;20189;-83
2022/05/03 04:43:00;;;;;;;10.83;10.53;;;9.80;99.90;;;;;;6160542;23;20165;-84
2022/05/03 04:45:27;;;;;;;10.40;10.10;;;9.80;99.90;;;;;;6160809;23;20180;-83
2022/05/03 04:47:56;;;;;;;10.60;10.30;;;9.70;99.90;;;;;;6160620;23;20189;-84
2022/05/03 04:50:25;;;;;;;10.50;10.20;;;9.70;99.90;;;;;;6160137;23;20181;-84
2022/05/03 04:52:56;;;;;;;10.23;9.93;;;9.70;99.90;;;;;;6160526;23;20177;-83
2022/05/03 04:55:24;;;;;;;10.33;10.03;;;9.80;99.90;;;;;;6159940;23;20284;-84
2022/05/03 04:57:54;;;;;;;10.40;10.10;;;9.80;99.90;;;;;;6156517;23;20201;-84
2022/05/03 05:00:26;;;;;;;10.60;10.30;;;9.90;99.90;;;;;;6121231;23;20224;-83
2022/05/03 05:02:54;;;;;;;11.00;10.70;;;9.90;99.90;;;;;;6116411;23;20258;-84
2022/05/03 05:05:22;;;;;;;10.57;10.27;;;9.90;99.90;;;;;;6115678;23;20250;-83
2022/05/03 05:07:50;;;;;;;10.60;10.30;;;9.90;99.90;;;;;;6111486;23;20205;-83
2022/05/03 05:10:24;;;;;;;11.17;10.80;;;10.00;99.90;;;;;;6110614;23;20233;-83
2022/05/03 05:12:53;;;;;;;10.63;10.33;;;10.00;99.90;;;;;;6112742;23;20192;-83
2022/05/03 05:15:23;;;;;;;10.67;10.37;;;10.10;99.90;;;;;;6111972;23;20209;-83
2022/05/03 05:17:51;;;;;;;10.57;10.27;;;10.20;99.90;;;;;;6111019;23;20197;-83
2022/05/03 05:20:19;;;;;;;10.57;10.27;;;10.20;99.90;;;;;;6109980;23;20202;-83
2022/05/03 05:22:48;;;;;;;10.80;10.50;;;10.30;99.90;;;;;;6110256;23;20204;-82
2022/05/03 05:25:17;;;;;;;10.70;10.40;;;10.40;99.90;;;;;;6110669;23;20221;-82
2022/05/03 05:27:47;;;;;;;10.57;10.27;;;10.40;99.90;;;;;;6110788;23;20217;-83
2022/05/03 05:30:16;;;;;;;10.60;10.30;;;10.50;99.90;;;;;;6111062;23;20201;-82
2022/05/03 05:32:55;;;;;;;11.00;10.70;;;10.50;99.90;;;;;;6110952;23;20202;-83
2022/05/03 05:35:27;;;;;;;10.67;10.37;;;10.60;99.90;;;;;;6110242;23;20196;-82
2022/05/03 05:37:55;;;;;;;10.50;10.20;;;10.60;99.90;;;;;;6110227;23;20257;-82
2022/05/03 05:40:25;;;;;;;10.43;10.13;;;10.50;99.90;;;;;;6109432;23;20233;-82
2022/05/03 05:42:55;;;;;;;10.37;10.07;;;10.60;99.90;;;;;;6110196;23;20212;-83
2022/05/03 05:45:23;;;;;;;10.57;10.27;;;10.50;99.90;;;;;;6109050;23;20198;-82
2022/05/03 05:48:00;;;;;;;10.60;10.30;;;10.50;99.90;;;;;;6109404;23;20198;-82
2022/05/03 05:50:28;;;;;;;10.33;10.03;;;10.60;99.90;;;;;;6110079;23;20193;-82
2022/05/03 05:55:49;;;;;;;10.80;10.50;;;10.70;99.90;;;;;;6040847;23;20190;-82
2022/05/03 05:58:17;;;;;;;10.70;10.40;;;10.70;99.90;;;;;;6113922;23;20208;-82
2022/05/03 06:00:45;;;;;;;10.53;10.23;;;10.80;99.90;;;;;;6139732;23;20193;-82
2022/05/03 06:03:19;;;;;;;10.60;10.30;;;10.90;99.90;;;;;;6139500;23;20203;-82
2022/05/03 06:05:47;;;;;;;10.67;10.37;;;11.00;99.90;;;;;;6139448;23;20224;-82
2022/05/03 06:08:14;;;;;;;10.87;10.57;;;11.10;99.90;;;;;;6139919;23;20197;-82
2022/05/03 06:10:44;;;;;;;10.63;10.33;;;11.20;99.90;;;;;;6138996;23;20680;-82
2022/05/03 06:13:15;;;;;;;10.30;10.00;;;11.30;99.90;;;;;;6138844;23;20205;-82
2022/05/03 06:15:43;;;;;;;10.30;10.00;;;11.50;99.90;;;;;;6139480;23;20220;-82
2022/05/03 06:18:12;;;;;;;10.40;10.10;;;11.60;99.90;;;;;;6139192;23;20215;-82
2022/05/03 06:20:45;;;;;;;10.50;10.20;;;11.80;99.90;;;;;;6142871;23;20202;-82
2022/05/03 06:23:13;;;;;;;10.67;10.37;;;11.90;99.90;;;;;;6141069;23;20197;-82
2022/05/03 06:25:41;;;;;;;10.30;10.00;;;12.00;99.90;;;;;;6140442;23;20209;-82
2022/05/03 06:28:10;;;;;;;10.40;10.10;;;12.00;99.90;;;;;;6139766;23;20212;-81
2022/05/03 06:30:40;;;;;;;10.20;9.90;;;12.10;99.90;;;;;;6139553;23;20197;-82
2022/05/03 06:33:08;;;;;;;10.10;9.80;;;12.10;99.90;;;;;;6139608;23;20228;-81
2022/05/03 06:35:37;;;;;;;9.73;9.43;;;12.20;99.90;;;;;;6139013;23;20204;-82
2022/05/03 06:38:13;;;;;;;9.93;9.63;;;12.30;99.90;;;;;;6138981;23;20209;-82
2022/05/03 06:40:46;;;;;;;10.13;9.83;;;12.50;99.90;;;;;;6138614;23;20205;-82
2022/05/03 06:43:15;;;;;;;9.80;9.50;;;12.60;99.90;;;;;;6138921;23;20201;-82
2022/05/03 06:45:45;;;;;;;9.90;9.60;;;12.70;99.90;;;;;;6140301;23;20205;-82
2022/05/03 06:48:15;;;;;;;9.90;9.60;;;12.80;99.90;;;;;;6139731;23;20201;-82
2022/05/03 06:50:44;;;;;;;10.07;9.77;;;12.90;99.90;;;;;;6139835;23;20197;-82
2022/05/03 06:53:14;;;;;;;10.23;9.93;;;13.10;99.90;;;;;;6149367;23;20197;-82
2022/05/03 06:55:41;;;;;;;9.70;9.40;;;13.20;99.90;;;;;;6141844;23;20201;-82
2022/05/03 06:58:09;;;;;;;10.03;9.73;;;13.30;99.90;;;;;;6137491;23;20283;-82
2022/05/03 07:00:37;;;;;;;10.00;9.70;;;13.40;99.90;;;;;;6112662;23;20194;-83
2022/05/03 07:03:05;;;;;;;9.73;9.43;;;13.50;99.90;;;;;;6112161;23;20202;-80
2022/05/03 07:05:33;;;;;;;9.30;9.00;;;13.60;99.90;;;;;;6113191;23;20202;-81
2022/05/03 07:08:04;;;;;;;9.30;9.00;;;13.60;99.90;;;;;;6112944;23;20230;-81
2022/05/03 07:10:41;;;;;;;9.80;9.50;;;13.70;99.90;;;;;;6112261;23;20201;-81
2022/05/03 07:13:23;;;;;;;9.60;9.30;;;13.80;99.90;;;;;;6112388;23;20201;-82
2022/05/03 07:15:56;;;;;;;9.73;9.43;;;14.00;99.90;;;;;;6112402;23;20229;-81
2022/05/03 07:24:00;;;;;;;9.83;9.53;;;14.20;99.90;;;;;;6113127;23;20257;-82
2022/05/03 07:26:32;;;;;;;9.60;9.30;;;14.40;99.90;;;;;;6113018;23;20197;-82
2022/05/03 07:29:00;;;;;;;9.40;9.10;;;14.50;99.90;;;;;;6113207;23;20232;-82
2022/05/03 07:31:28;;;;;;;9.73;9.43;;;14.60;99.90;;;;;;6113637;23;20229;-82
2022/05/03 07:33:57;;;;;;;9.70;9.40;;;14.70;99.90;;;;;;6114233;23;20205;-82
2022/05/03 07:36:30;;;;;;;9.55;9.25;;;14.80;99.90;;;;;;6112421;23;20198;-82
2022/05/03 07:38:58;;;;;;;9.60;9.30;;;14.90;99.90;;;;;;6113860;23;20209;-82
2022/05/03 07:41:29;;;;;;;9.73;9.43;;;14.90;99.90;;;;;;6115483;23;20711;-81
2022/05/03 07:43:57;;;;;;;9.75;9.45;;;14.90;99.90;;;;;;6117126;23;20209;-81
2022/05/03 07:46:26;;;;;;;9.88;9.57;;;15.00;99.90;;;;;;6119149;23;20218;-81
2022/05/03 07:48:56;;;;;;;9.77;9.48;;;15.10;99.90;;;;;;6115007;23;20210;-81
2022/05/03 07:51:25;;;;;;;9.95;9.65;;;15.20;99.90;;;;;;6114813;23;20229;-81
2022/05/03 07:53:55;;;;;;;9.82;9.52;;;15.30;99.90;;;;;;6113707;23;20202;-81
2022/05/03 07:56:24;;;;;;;9.80;9.50;;;15.30;99.90;;;;;;6112059;23;20208;-81
2022/05/03 07:59:02;;;;;;;9.45;9.15;;;15.20;99.90;;;;;;6111059;23;21001;-81
2022/05/03 08:01:32;;;;;;;9.60;9.30;;;15.40;99.90;;;;;;6111557;23;20217;-82
2022/05/03 08:04:01;;;;;;;9.80;9.50;;;15.60;99.90;;;;;;6111131;23;20202;-81
2022/05/03 08:06:30;;;;;;;9.30;9.00;;;15.70;99.90;;;;;;6112013;23;20209;-81
2022/05/03 08:09:00;;;;;;;9.50;9.20;;;15.80;99.90;;;;;;6112057;23;20206;-81
2022/05/03 08:11:29;;;;;;;9.52;9.23;;;15.90;99.90;;;;;;6112610;23;20204;-81
2022/05/03 08:14:08;;;;;;;9.80;9.50;;;16.00;99.90;;;;;;6113649;23;20210;-82
2022/05/03 08:16:38;;;;;;;10.23;9.93;;;15.90;99.90;;;;;;6113805;23;20201;-81
2022/05/03 08:19:06;;;;;;;10.07;9.77;;;16.00;99.90;;;;;;6113480;23;20210;-81
2022/05/03 08:21:37;;;;;;;10.35;10.05;;;16.10;99.90;;;;;;6112307;23;20197;-81
2022/05/03 08:24:08;;;;;;;10.00;9.70;;;16.20;99.90;;;;;;6112841;23;20205;-81
2022/05/03 08:26:36;;;;;;;10.10;9.80;;;16.30;99.90;;;;;;6127952;23;20186;-80
2022/05/03 08:29:07;;;;;;;10.10;9.80;;;16.30;99.90;;;;;;6126329;23;20201;-81
2022/05/03 08:31:35;;;;;;;10.13;9.82;;;16.30;99.90;;;;;;6123349;23;20193;-81
2022/05/03 08:34:03;;;;;;;10.40;10.10;;;16.30;99.90;;;;;;6128820;23;20197;-81
2022/05/03 08:36:32;;;;;;;10.40;10.10;;;16.20;99.90;;;;;;6116865;23;20198;-81
2022/05/03 08:42:11;;;;;;;10.60;10.30;;;16.30;99.90;;;;;;6025253;23;20244;-81
2022/05/03 08:44:45;;;;;;;10.45;10.15;;;16.40;99.90;;;;;;6103523;23;20236;-81
2022/05/03 08:51:06;;;;;;;11.00;10.70;;;16.70;99.90;;;;;;5965648;23;20299;-81
2022/05/03 08:53:41;;;;;;;10.50;10.20;;;17.00;99.90;;;;;;6115229;23;20198;-81
2022/05/03 08:56:46;;;;;;;10.68;10.38;;;17.10;99.90;;;;;;6113163;23;20698;-82
2022/05/03 08:59:15;;;;;;;10.48;10.18;;;17.20;99.90;;;;;;6112595;23;20209;-82
2022/05/03 09:01:54;;;;;;;10.50;10.20;;;17.10;99.90;;;;;;6112963;23;21007;-81
2022/05/03 09:04:23;;;;;;;10.50;10.20;;;17.20;99.90;;;;;;6112853;23;20204;-81
2022/05/03 09:06:52;;;;;;;10.40;10.10;;;17.40;99.90;;;;;;6113626;23;20229;-82
2022/05/03 09:09:22;;;;;;;10.90;10.60;;;17.60;99.90;;;;;;6112409;23;20209;-81
2022/05/03 09:11:53;;;;;;;10.73;10.43;;;17.80;99.90;;;;;;6112001;23;20205;-81
2022/05/03 09:14:38;;;;;;;10.88;10.57;;;17.90;99.90;;;;;;6113321;23;20265;-81
2022/05/03 09:17:18;;;;;;;10.88;10.57;;;18.10;99.90;;;;;;6113275;23;20265;-82
2022/05/03 09:19:48;;;;;;;10.90;10.60;;;18.30;99.90;;;;;;6111867;23;20288;-81
2022/05/03 09:25:13;;;;;;;10.98;10.68;;;18.50;99.90;;;;;;6112765;23;20182;-81
2022/05/03 09:27:42;;;;;;;10.60;10.30;;;18.70;99.90;;;;;;6112431;23;20268;-82
2022/05/03 09:30:11;;;;;;;10.75;10.45;;;18.80;99.90;;;;;;6112784;23;20220;-82
2022/05/03 09:32:52;;;;;;;10.35;10.05;;;18.90;99.90;;;;;;6112524;23;20201;-81
2022/05/03 09:35:40;;;;;;;10.30;10.00;;;18.90;99.90;;;;;;6111753;23;20264;-81
2022/05/03 09:38:08;;;;;;;10.75;10.45;;;19.00;99.90;;;;;;6112786;23;20214;-81
2022/05/03 09:40:45;;;;;;;10.32;10.02;;;19.20;99.90;;;;;;6111351;23;20206;-82
2022/05/03 09:43:14;;;;;;;10.68;10.38;;;19.30;99.90;;;;;;6112575;23;20242;-82
2022/05/03 09:45:44;;;;;;;10.80;10.50;;;19.40;99.90;;;;;;6112213;23;20209;-81
2022/05/03 09:48:16;;;;;;;10.80;10.50;;;19.60;99.90;;;;;;6111893;23;20193;-82
2022/05/03 09:50:55;;;;;;;10.95;10.65;;;19.70;99.90;;;;;;6111081;23;20204;-82
2022/05/03 09:53:23;;;;;;;11.07;10.77;;;20.10;99.90;;;;;;6111611;23;20197;-82
2022/05/03 09:55:52;;;;;;;10.77;10.48;;;20.30;99.90;;;;;;6112261;23;20209;-82
2022/05/03 09:58:21;;;;;;;10.60;10.30;;;20.20;99.90;;;;;;6111654;23;20213;-81
2022/05/03 10:00:50;;;;;;;10.60;10.30;;;20.50;99.90;;;;;;6114283;23;20194;-80
2022/05/03 10:03:29;;;;;;;10.82;10.52;;;20.50;99.90;;;;;;6123509;23;20209;-81
2022/05/03 10:05:58;;;;;;;10.75;10.45;;;20.80;99.90;;;;;;6121122;23;20197;-82
2022/05/03 10:08:26;;;;;;;10.27;9.98;;;21.20;99.90;;;;;;6115077;23;20297;-81
2022/05/03 10:10:57;;;;;;;10.30;10.00;;;21.30;99.90;;;;;;6111796;23;20220;-81
2022/05/03 10:13:25;;;;;;;10.25;9.95;;;21.50;99.90;;;;;;6111722;23;20252;-82
2022/05/03 10:21:37;;;;;;;10.70;10.40;;;22.10;99.90;;;;;;6112051;23;20185;-82
2022/05/03 10:24:08;;;;;;;10.80;10.50;;;22.50;99.90;;;;;;6111314;23;20279;-82
2022/05/03 10:27:05;;;;;;;10.55;10.25;;;22.70;99.90;;;;;;6111582;23;20208;-82
2022/05/03 10:29:35;;;;;;;10.68;10.38;;;22.30;99.90;;;;;;6111206;23;20213;-82
2022/05/03 10:32:14;;;;;;;10.70;10.40;;;22.30;99.90;;;;;;6112249;23;20197;-82
2022/05/03 10:34:59;;;;;;;10.75;10.45;;;22.60;99.90;;;;;;6112525;23;20256;-82
2022/05/03 10:38:10;;;;;;;10.98;10.68;;;23.00;99.90;;;;;;6112494;23;20198;-82
2022/05/03 10:40:43;;;;;;;10.75;10.45;;;23.00;99.90;;;;;;6111641;23;20238;-82
2022/05/03 10:43:20;;;;;;;10.80;10.50;;;23.30;99.90;;;;;;6112852;23;20197;-82
2022/05/03 10:45:56;;;;;;;10.63;10.32;;;23.40;99.90;;;;;;6112575;23;20197;-82
2022/05/03 10:48:28;;;;;;;10.80;10.50;;;23.50;99.90;;;;;;6112076;23;20205;-82
2022/05/03 10:51:05;;;;;;;10.73;10.43;;;23.50;99.90;;;;;;6111924;23;20197;-82
2022/05/03 10:53:35;;;;;;;10.90;10.60;;;23.40;99.90;;;;;;6113001;23;20206;-82
2022/05/03 10:56:22;;;;;;;11.20;10.90;;;23.60;99.90;;;;;;6112083;23;20193;-82
2022/05/03 10:59:18;;;;;;;11.18;10.88;;;23.40;99.90;;;;;;6110969;23;20205;-82
2022/05/03 11:02:14;;;;;;;11.07;10.77;;;23.60;99.90;;;;;;6112268;23;20186;-82
2022/05/03 11:05:18;;;;;;;11.20;10.90;;;24.30;99.90;;;;;;6111875;23;20272;-82
2022/05/03 11:08:34;;;;;;;11.20;10.90;;;24.70;99.90;;;;;;6111476;23;20193;-82
2022/05/03 11:11:02;;;;;;;11.05;10.75;;;25.20;99.90;;;;;;6110329;23;20284;-82
2022/05/03 11:13:49;;;;;;;11.20;10.90;;;25.40;99.90;;;;;;6111638;23;20202;-83
2022/05/03 11:16:25;;;;;;;10.98;10.68;;;25.50;99.90;;;;;;6112192;23;20190;-82
2022/05/03 11:18:55;;;;;;;10.93;10.63;;;25.10;99.90;;;;;;6111863;23;20265;-81
2022/05/03 11:21:24;;;;;;;10.57;10.27;;;25.20;99.90;;;;;;6112222;23;20205;-82
2022/05/03 11:24:03;;;;;;;10.68;10.38;;;25.30;99.90;;;;;;6112949;23;20259;-82
2022/05/03 11:26:31;;;;;;;10.73;10.43;;;25.40;99.90;;;;;;6112847;23;20197;-82
2022/05/03 11:29:03;;;;;;;10.80;10.50;;;25.00;99.90;;;;;;6127085;23;20253;-82
2022/05/03 11:31:31;;;;;;;11.30;11.00;;;25.30;99.90;;;;;;6126608;23;20185;-82
2022/05/03 11:34:00;;;;;;;11.55;11.15;;;25.50;99.90;;;;;;6115960;23;20201;-82
2022/05/03 11:36:33;;;;;;;11.18;10.88;;;25.70;99.90;;;;;;6113384;23;20198;-82
2022/05/03 11:39:03;;;;;;;11.18;10.88;;;26.20;99.90;;;;;;6116083;23;20205;-82
2022/05/03 11:41:32;;;;;;;11.75;11.35;;;26.10;99.90;;;;;;6120716;23;20193;-82
2022/05/03 11:43:59;;;;;;;11.38;11.07;;;25.40;99.90;;;;;;6115402;23;20253;-82
2022/05/03 11:46:29;;;;;;;10.88;10.57;;;25.70;99.90;;;;;;6113584;23;20254;-82
2022/05/03 11:49:01;;;;;;;10.80;10.50;;;25.80;99.90;;;;;;6111891;23;20221;-82
2022/05/03 11:57:20;;;;;;;11.15;10.85;;;26.40;99.90;;;;;;6114617;23;20185;-83
2022/05/03 11:59:50;;;;;;;10.93;10.63;;;26.60;99.90;;;;;;6113429;23;20273;-83
2022/05/03 12:02:21;;;;;;;10.70;10.40;;;27.00;99.90;;;;;;6113519;23;20204;-83
2022/05/03 12:05:16;;;;;;;10.65;10.35;;;27.20;99.90;;;;;;6111387;23;20190;-82
2022/05/03 12:07:46;;;;;;;10.80;10.50;;;27.30;99.90;;;;;;6111003;23;20206;-83
2022/05/03 12:10:30;;;;;;;10.80;10.50;;;27.30;99.90;;;;;;6111839;23;20269;-82
2022/05/03 12:13:10;;;;;;;10.90;10.60;;;26.90;99.90;;;;;;6112327;23;20190;-82
2022/05/03 12:15:40;;;;;;;10.85;10.55;;;26.90;99.90;;;;;;6111840;23;20194;-82
2022/05/03 12:18:18;;;;;;;10.88;10.57;;;26.80;99.90;;;;;;6114501;23;20193;-83
2022/05/03 12:20:55;;;;;;;10.93;10.63;;;25.90;99.90;;;;;;6125430;23;20237;-80
2022/05/03 12:23:25;;;;;;;11.10;10.80;;;24.80;99.90;;;;;;6114062;23;20220;-82
2022/05/03 12:26:02;;;;;;;10.93;10.63;;;24.50;99.90;;;;;;6113353;23;20218;-82
2022/05/03 12:28:41;;;;;;;10.73;10.43;;;24.20;99.90;;;;;;6113462;23;20205;-83
2022/05/03 12:31:12;;;;;;;10.32;10.02;;;23.90;99.90;;;;;;6111892;23;20201;-82
2022/05/03 12:33:42;;;;;;;10.50;10.20;;;23.50;99.90;;;;;;6111681;23;20229;-82
2022/05/03 12:36:10;;;;;;;10.18;9.88;;;23.10;99.90;;;;;;6111352;23;20185;-82
2022/05/03 12:38:49;;;;;;;10.40;10.10;;;22.80;99.90;;;;;;6111622;23;20205;-82
2022/05/03 12:41:35;;;;;;;10.25;9.95;;;22.50;99.90;;;;;;6110931;23;20205;-82
2022/05/03 12:44:06;;;;;;;10.60;10.30;;;22.40;99.90;;;;;;6110460;23;20201;-82
2022/05/03 12:46:34;;;;;;;10.27;9.98;;;22.30;99.90;;;;;;6111331;23;20205;-82
2022/05/03 12:49:04;;;;;;;10.07;9.77;;;22.10;99.90;;;;;;6112632;23;20962;-82
2022/05/03 12:51:33;;;;;;;9.88;9.57;;;22.00;99.90;;;;;;6113184;23;20226;-81
2022/05/03 12:54:04;;;;;;;9.65;9.35;;;21.90;99.90;;;;;;6112970;23;20257;-82
2022/05/03 12:59:21;;;;;;;9.90;9.60;;;21.70;99.90;;;;;;6112796;23;20292;-82
2022/05/03 13:01:50;;;;;;;10.13;9.82;;;21.60;99.90;;;;;;6142550;23;20256;-82
2022/05/03 13:04:19;;;;;;;10.02;9.73;;;21.60;99.90;;;;;;6140219;23;20200;-82
2022/05/03 13:06:48;;;;;;;10.25;9.95;;;21.60;99.90;;;;;;6139929;23;20203;-82
2022/05/03 13:09:16;;;;;;;10.43;10.13;;;21.80;99.90;;;;;;6140197;23;20205;-82
2022/05/03 13:11:49;;;;;;;10.52;10.23;;;21.90;99.90;;;;;;6141295;23;20197;-82
2022/05/03 13:14:17;;;;;;;10.55;10.25;;;22.00;99.90;;;;;;6140087;23;20268;-82
2022/05/03 13:16:45;;;;;;;10.30;10.00;;;21.90;99.90;;;;;;6140246;23;20209;-83
2022/05/03 13:19:14;;;;;;;10.18;9.88;;;21.50;99.90;;;;;;6140213;23;20205;-82
2022/05/03 13:21:43;;;;;;;10.50;10.20;;;21.10;99.90;;;;;;6141668;23;20233;-82
2022/05/03 13:24:12;;;;;;;10.70;10.40;;;20.90;99.90;;;;;;6139254;23;20192;-82
2022/05/03 13:26:41;;;;;;;10.15;9.85;;;20.40;99.90;;;;;;6139051;23;20204;-82
2022/05/03 13:29:21;;;;;;;9.82;9.52;;;20.00;99.90;;;;;;6139786;23;20201;-82
2022/05/03 13:31:50;;;;;;;9.70;9.40;;;19.60;99.90;;;;;;6140012;23;20192;-82
2022/05/03 13:34:19;;;;;;;10.00;9.70;;;19.30;99.90;;;;;;6139651;23;20702;-81
2022/05/03 13:42:17;;;;;;;10.40;10.10;;;19.00;99.90;;;;;;6140690;23;20189;-82
2022/05/03 13:44:48;;;;;;;10.07;9.77;;;18.90;99.90;;;;;;6139567;23;20196;-83
2022/05/03 13:47:15;;;;;;;9.90;9.60;;;18.80;99.90;;;;;;6140169;23;20228;-82
2022/05/03 13:49:43;;;;;;;9.95;9.65;;;18.80;99.90;;;;;;6139526;23;20224;-82
2022/05/03 13:52:13;;;;;;;9.88;9.57;;;18.70;99.90;;;;;;6141044;23;20207;-82
2022/05/03 13:54:42;;;;;;;9.63;9.32;;;18.60;99.90;;;;;;6139520;23;20193;-82
2022/05/03 13:57:12;;;;;;;10.10;9.80;;;18.40;99.90;;;;;;6140602;23;20225;-82
2022/05/03 13:59:42;;;;;;;9.60;9.30;;;18.30;99.90;;;;;;6139630;23;20208;-82
2022/05/03 14:02:13;;;;;;;9.80;9.50;;;18.40;99.90;;;;;;6139936;23;20228;-82
2022/05/03 14:04:41;;;;;;;9.75;9.45;;;18.50;99.90;;;;;;6138984;23;20197;-82
2022/05/03 14:07:09;;;;;;;10.07;9.77;;;18.60;99.90;;;;;;6139688;23;20275;-82